createdAt,value
2019-01-16T00:00:16.489Z,8.47
2019-01-16T00:03:07.834Z,8.10
2019-01-16T00:06:00.192Z,8.50
2019-01-16T00:08:47.350Z,8.77
2019-01-16T00:11:47.412Z,8.33
2019-01-16T00:14:34.368Z,8.33
2019-01-16T00:17:31.753Z,8.27
2019-01-16T00:20:38.002Z,8.17
2019-01-16T00:23:35.633Z,8.17
2019-01-16T00:26:33.080Z,8.63
2019-01-16T00:29:20.104Z,8.20
2019-01-16T00:32:08.864Z,7.23
2019-01-16T00:34:55.900Z,7.20
2019-01-16T00:37:38.214Z,7.53
2019-01-16T00:40:26.369Z,7.63
2019-01-16T00:43:23.904Z,7.67
2019-01-16T00:46:14.889Z,7.70
2019-01-16T00:49:18.044Z,7.90
2019-01-16T00:52:12.392Z,7.13
2019-01-16T00:55:02.980Z,7.87
2019-01-16T00:57:41.622Z,7.77
2019-01-16T01:00:34.118Z,7.90
2019-01-16T01:03:28.440Z,7.13
2019-01-16T01:06:34.922Z,7.57
2019-01-16T01:09:14.842Z,6.60
2019-01-16T01:12:05.764Z,6.87
2019-01-16T01:14:52.659Z,6.50
2019-01-16T01:17:37.777Z,6.13
2019-01-16T01:20:25.027Z,6.57
2019-01-16T01:23:25.486Z,5.97
2019-01-16T01:26:16.500Z,5.80
2019-01-16T01:28:59.661Z,5.90
2019-01-16T01:31:48.031Z,5.80
2019-01-16T01:34:36.237Z,5.73
2019-01-16T01:37:23.690Z,5.07
2019-01-16T01:40:10.385Z,5.93
2019-01-16T01:42:58.747Z,5.73
2019-01-16T01:45:45.567Z,4.97
2019-01-16T01:48:40.142Z,5.10
2019-01-16T01:51:19.196Z,5.80
2019-01-16T01:54:12.981Z,6.10
2019-01-16T01:56:56.340Z,5.30
2019-01-16T01:59:35.631Z,5.17
2019-01-16T02:02:18.268Z,5.23
2019-01-16T02:04:59.127Z,5.70
2019-01-16T02:07:59.552Z,5.50
2019-01-16T02:10:42.794Z,5.27
2019-01-16T02:13:40.862Z,5.17
2019-01-16T02:16:28.868Z,4.80
2019-01-16T02:19:17.650Z,5.30
2019-01-16T02:22:12.251Z,5.27
2019-01-16T02:24:59.357Z,5.17
2019-01-16T02:28:05.497Z,5.13
2019-01-16T02:30:50.112Z,4.43
2019-01-16T02:33:40.238Z,4.57
2019-01-16T02:36:28.532Z,4.53
2019-01-16T02:39:11.392Z,4.80
2019-01-16T02:42:05.931Z,5.00
2019-01-16T02:44:56.414Z,4.60
2019-01-16T02:47:43.392Z,4.60
2019-01-16T02:50:28.982Z,4.60
2019-01-16T02:53:26.266Z,5.77
2019-01-16T02:56:26.736Z,4.93
2019-01-16T02:59:19.393Z,4.97
2019-01-16T03:02:07.454Z,5.07
2019-01-16T03:05:07.803Z,5.07
2019-01-16T03:08:05.444Z,4.37
2019-01-16T03:10:59.932Z,4.67
2019-01-16T03:13:45.621Z,4.30
2019-01-16T03:16:42.827Z,4.37
2019-01-16T03:19:39.315Z,4.20
2019-01-16T03:22:36.586Z,4.40
2019-01-16T03:25:35.514Z,4.10
2019-01-16T03:28:22.477Z,4.20
2019-01-16T03:31:16.495Z,3.97
2019-01-16T03:34:07.308Z,3.97
2019-01-16T03:37:13.931Z,4.37
2019-01-16T03:40:01.280Z,3.83
2019-01-16T03:42:40.202Z,4.03
2019-01-16T03:45:17.096Z,4.50
2019-01-16T03:47:56.927Z,4.00
2019-01-16T03:50:45.944Z,3.97
2019-01-16T03:53:33.316Z,3.83
2019-01-16T03:56:14.419Z,3.33
2019-01-16T03:59:01.345Z,3.50
2019-01-16T04:01:58.671Z,3.53
2019-01-16T04:04:46.155Z,3.87
2019-01-16T04:07:40.168Z,3.40
2019-01-16T04:10:28.377Z,3.27
2019-01-16T04:13:16.376Z,3.23
2019-01-16T04:16:07.417Z,3.80
2019-01-16T04:19:02.650Z,3.70
2019-01-16T04:21:49.730Z,3.13
2019-01-16T04:24:35.698Z,3.27
2019-01-16T04:27:27.745Z,3.33
2019-01-16T04:30:11.118Z,3.33
2019-01-16T04:32:59.151Z,2.83
2019-01-16T04:35:47.245Z,3.10
2019-01-16T04:38:32.156Z,3.10
2019-01-16T04:41:23.301Z,3.50
2019-01-16T04:44:14.194Z,2.90
2019-01-16T04:47:01.102Z,3.10
2019-01-16T04:49:53.432Z,2.93
2019-01-16T04:52:47.653Z,2.60
2019-01-16T04:55:34.645Z,2.80
2019-01-16T04:58:27.164Z,2.40
2019-01-16T05:01:15.399Z,2.50
2019-01-16T05:04:02.500Z,3.17
2019-01-16T05:06:45.753Z,3.10
2019-01-16T05:09:32.561Z,3.27
2019-01-16T05:12:29.658Z,2.70
2019-01-16T05:15:24.281Z,3.10
2019-01-16T05:18:21.277Z,2.70
2019-01-16T05:21:07.872Z,2.73
2019-01-16T05:24:05.043Z,2.90
2019-01-16T05:26:52.273Z,2.60
2019-01-16T05:29:39.918Z,2.67
2019-01-16T05:32:24.677Z,2.50
2019-01-16T05:35:12.643Z,2.80
2019-01-16T05:38:06.093Z,2.73
2019-01-16T05:41:03.228Z,2.90
2019-01-16T05:44:06.944Z,2.87
2019-01-16T05:47:00.876Z,2.87
2019-01-16T05:50:07.313Z,2.93
2019-01-16T05:52:54.132Z,3.00
2019-01-16T05:55:41.197Z,3.00
2019-01-16T05:58:35.229Z,3.97
2019-01-16T06:01:29.226Z,3.57
2019-01-16T06:04:26.463Z,3.53
2019-01-16T06:07:13.983Z,3.83
2019-01-16T06:10:05.242Z,4.13
2019-01-16T06:12:55.981Z,3.63
2019-01-16T06:15:42.832Z,4.03
2019-01-16T06:18:32.099Z,4.17
2019-01-16T06:21:17.846Z,4.10
2019-01-16T06:24:04.484Z,4.00
2019-01-16T06:26:52.731Z,4.40
2019-01-16T06:29:41.691Z,4.90
2019-01-16T06:32:45.138Z,4.90
2019-01-16T06:35:29.764Z,5.50
2019-01-16T06:38:13.091Z,5.60
2019-01-16T06:41:05.109Z,5.77
2019-01-16T06:44:02.055Z,6.17
2019-01-16T06:46:59.736Z,5.80
2019-01-16T06:49:46.817Z,6.03
2019-01-16T06:52:30.689Z,6.57
2019-01-16T06:55:11.103Z,6.37
2019-01-16T06:58:07.371Z,6.37
2019-01-16T07:00:54.233Z,7.37
2019-01-16T07:03:40.969Z,6.87
2019-01-16T07:06:21.201Z,6.67
2019-01-16T07:09:12.303Z,6.50
2019-01-16T07:12:12.262Z,6.30
2019-01-16T07:14:58.807Z,6.93
2019-01-16T07:17:46.238Z,6.27
2019-01-16T07:20:34.079Z,6.07
2019-01-16T07:23:19.063Z,6.93
2019-01-16T07:26:02.380Z,7.50
2019-01-16T07:28:44.505Z,9.03
2019-01-16T07:31:29.963Z,8.67
2019-01-16T07:34:25.064Z,8.53
2019-01-16T07:37:31.953Z,9.07
2019-01-16T07:40:22.965Z,10.23
2019-01-16T07:43:09.879Z,7.93
2019-01-16T07:45:57.925Z,8.00
2019-01-16T07:48:48.912Z,8.30
2019-01-16T07:51:36.905Z,7.17
2019-01-16T07:54:33.829Z,7.73
2019-01-16T07:57:20.265Z,8.33
2019-01-16T08:00:13.790Z,7.93
2019-01-16T08:03:00.598Z,8.27
2019-01-16T08:05:47.669Z,8.47
2019-01-16T08:08:33.111Z,8.90
2019-01-16T08:11:19.778Z,8.93
2019-01-16T08:14:07.779Z,8.53
2019-01-16T08:17:08.115Z,7.80
2019-01-16T08:20:05.063Z,7.50
2019-01-16T08:23:00.735Z,8.07
2019-01-16T08:25:45.339Z,7.37
2019-01-16T08:28:36.585Z,7.00
2019-01-16T08:31:25.905Z,7.03
2019-01-16T08:34:13.036Z,7.53
2019-01-16T08:37:01.068Z,7.57
2019-01-16T08:39:51.421Z,8.83
2019-01-16T08:42:47.277Z,7.63
2019-01-16T08:45:38.379Z,7.00
2019-01-16T08:48:25.693Z,7.40
2019-01-16T08:51:13.027Z,8.13
2019-01-16T08:54:00.263Z,7.90
2019-01-16T08:57:00.873Z,7.50
2019-01-16T08:59:44.610Z,8.83
2019-01-16T09:02:31.281Z,9.03
2019-01-16T09:05:18.144Z,8.87
2019-01-16T09:08:21.854Z,9.07
2019-01-16T09:11:19.573Z,9.07
2019-01-16T09:14:10.601Z,7.27
2019-01-16T09:16:57.457Z,8.40
2019-01-16T09:19:50.506Z,6.77
2019-01-16T09:22:37.224Z,7.80
2019-01-16T09:25:52.509Z,7.73
2019-01-16T09:28:39.270Z,7.37
2019-01-16T09:31:27.262Z,8.90
2019-01-16T09:34:21.281Z,8.40
2019-01-16T09:37:09.285Z,8.30
2019-01-16T09:40:12.637Z,8.23
2019-01-16T09:42:59.076Z,9.00
2019-01-16T09:45:45.669Z,8.60
2019-01-16T09:48:44.275Z,8.93
2019-01-16T09:51:29.527Z,8.47
2019-01-16T09:54:17.542Z,8.13
2019-01-16T09:57:04.543Z,7.13
2019-01-16T10:00:01.886Z,7.70
2019-01-16T10:02:53.213Z,7.37
2019-01-16T10:05:46.991Z,8.80
2019-01-16T10:08:25.032Z,8.37
2019-01-16T10:11:11.739Z,8.90
2019-01-16T10:13:56.883Z,8.53
2019-01-16T10:16:36.688Z,8.47
2019-01-16T10:19:30.997Z,9.20
2019-01-16T10:22:10.925Z,11.97
2019-01-16T10:24:53.238Z,9.43
2019-01-16T10:27:37.610Z,7.90
2019-01-16T10:30:25.177Z,9.10
2019-01-16T10:33:06.705Z,8.53
2019-01-16T10:35:53.571Z,9.20
2019-01-16T10:38:50.629Z,8.63
2019-01-16T10:41:37.586Z,9.03
2019-01-16T10:44:24.359Z,8.80
2019-01-16T10:47:27.694Z,9.53
2019-01-16T10:50:16.819Z,9.13
2019-01-16T10:53:03.878Z,9.73
2019-01-16T10:56:04.256Z,9.37
2019-01-16T10:58:41.935Z,10.33
2019-01-16T11:01:20.610Z,9.70
2019-01-16T11:04:03.337Z,9.47
2019-01-16T11:06:50.340Z,9.60
2019-01-16T11:09:43.808Z,8.80
2019-01-16T11:12:28.822Z,9.03
2019-01-16T11:15:22.642Z,8.27
2019-01-16T11:18:26.044Z,7.63
2019-01-16T11:21:12.835Z,7.50
2019-01-16T11:24:09.805Z,8.10
2019-01-16T11:26:56.488Z,8.87
2019-01-16T11:29:56.641Z,10.17
2019-01-16T11:32:38.280Z,9.27
2019-01-16T11:35:26.912Z,7.67
2019-01-16T11:38:13.846Z,8.40
2019-01-16T11:41:00.239Z,8.73
2019-01-16T11:43:48.242Z,6.90
2019-01-16T11:46:42.400Z,6.77
2019-01-16T11:49:30.627Z,7.27
2019-01-16T11:52:25.492Z,6.63
2019-01-16T11:55:28.914Z,6.87
2019-01-16T11:58:15.551Z,7.03
2019-01-16T12:01:04.676Z,7.10
2019-01-16T12:04:08.028Z,6.90
2019-01-16T12:07:05.324Z,6.83
2019-01-16T12:09:55.522Z,6.20
2019-01-16T12:12:35.571Z,6.73
2019-01-16T12:15:15.026Z,6.70
2019-01-16T12:18:01.437Z,6.47
2019-01-16T12:20:58.609Z,6.20
2019-01-16T12:23:42.188Z,7.10
2019-01-16T12:26:29.100Z,6.80
2019-01-16T12:29:16.028Z,6.20
2019-01-16T12:32:12.809Z,5.90
2019-01-16T12:34:59.756Z,6.70
2019-01-16T12:37:47.097Z,6.00
2019-01-16T12:40:35.105Z,6.80
2019-01-16T12:43:22.270Z,6.90
2019-01-16T12:46:23.036Z,6.13
2019-01-16T12:49:06.021Z,6.50
2019-01-16T12:51:57.169Z,6.13
2019-01-16T12:54:48.002Z,5.43
2019-01-16T12:57:36.174Z,6.17
2019-01-16T13:00:25.472Z,6.90
2019-01-16T13:03:16.933Z,7.63
2019-01-16T13:06:10.877Z,7.03
2019-01-16T13:09:13.814Z,8.30
2019-01-16T13:12:19.790Z,8.20
2019-01-16T13:15:09.729Z,8.47
2019-01-16T13:18:09.508Z,8.73
2019-01-16T13:20:55.996Z,9.27
2019-01-16T13:23:43.601Z,9.27
2019-01-16T13:26:37.399Z,7.57
2019-01-16T13:29:37.376Z,7.70
2019-01-16T13:32:27.436Z,7.63
2019-01-16T13:35:14.863Z,7.43
2019-01-16T13:37:59.349Z,7.67
2019-01-16T13:40:47.354Z,7.40
2019-01-16T13:43:34.120Z,7.23
2019-01-16T13:46:40.822Z,8.27
2019-01-16T13:49:20.134Z,6.63
2019-01-16T13:52:11.422Z,7.27
2019-01-16T13:55:15.594Z,7.30
2019-01-16T13:58:02.218Z,7.63
2019-01-16T14:00:50.236Z,7.53
2019-01-16T14:03:34.923Z,7.13
2019-01-16T14:06:40.896Z,7.00
2019-01-16T14:09:43.215Z,6.90
2019-01-16T14:12:37.181Z,8.33
2019-01-16T14:15:30.744Z,7.83
2019-01-16T14:18:27.477Z,7.40
2019-01-16T14:21:13.917Z,7.80
2019-01-16T14:24:00.612Z,8.70
2019-01-16T14:26:51.728Z,8.63
2019-01-16T14:29:37.247Z,8.13
2019-01-16T14:32:25.185Z,9.60
2019-01-16T14:35:11.668Z,9.27
2019-01-16T14:37:58.199Z,7.70
2019-01-16T14:41:04.666Z,8.80
2019-01-16T14:43:52.045Z,8.30
2019-01-16T14:46:43.298Z,8.10
2019-01-16T14:49:30.354Z,7.73
2019-01-16T14:52:19.147Z,7.40
2019-01-16T14:55:07.802Z,7.03
2019-01-16T14:58:02.162Z,6.47
2019-01-16T15:00:50.430Z,6.90
2019-01-16T15:03:44.441Z,7.20
2019-01-16T15:06:35.192Z,7.47
2019-01-16T15:09:40.061Z,7.40
2019-01-16T15:12:46.394Z,7.20
2019-01-16T15:15:49.606Z,8.20
2019-01-16T15:18:41.022Z,7.27
2019-01-16T15:21:27.846Z,7.40
2019-01-16T15:24:18.906Z,7.40
2019-01-16T15:27:00.750Z,7.83
2019-01-16T15:29:48.792Z,7.43
2019-01-16T15:32:40.273Z,7.73
2019-01-16T15:35:27.513Z,7.33
2019-01-16T15:38:24.639Z,7.33
2019-01-16T15:41:18.502Z,6.67
2019-01-16T15:44:06.917Z,7.50
2019-01-16T15:46:51.239Z,7.57
2019-01-16T15:49:38.213Z,7.70
2019-01-16T15:52:28.046Z,7.33
2019-01-16T15:55:07.780Z,8.27
2019-01-16T15:57:54.860Z,8.13
2019-01-16T16:00:38.532Z,7.80
2019-01-16T16:03:33.024Z,7.93
2019-01-16T16:06:19.624Z,7.57
2019-01-16T16:09:13.944Z,7.50
2019-01-16T16:12:01.732Z,7.83
2019-01-16T16:14:48.420Z,8.43
2019-01-16T16:17:35.276Z,8.97
2019-01-16T16:20:24.492Z,9.10
2019-01-16T16:23:18.548Z,8.87
2019-01-16T16:26:12.669Z,8.37
2019-01-16T16:29:09.638Z,8.33
2019-01-16T16:31:56.578Z,9.00
2019-01-16T16:34:44.615Z,8.70
2019-01-16T16:37:38.990Z,9.00
2019-01-16T16:40:28.069Z,9.10
2019-01-16T16:43:15.153Z,9.53
2019-01-16T16:46:00.651Z,9.63
2019-01-16T16:48:41.608Z,8.53
2019-01-16T16:51:28.912Z,9.63
2019-01-16T16:54:20.046Z,8.30
2019-01-16T16:57:06.715Z,8.83
2019-01-16T16:59:47.546Z,7.80
2019-01-16T17:02:36.522Z,8.00
2019-01-16T17:05:31.946Z,7.60
2019-01-16T17:08:23.093Z,7.27
2019-01-16T17:11:17.116Z,7.47
2019-01-16T17:14:14.378Z,6.97
2019-01-16T17:17:08.291Z,7.03
2019-01-16T17:19:59.110Z,6.57
2019-01-16T17:22:54.994Z,7.17
2019-01-16T17:25:40.770Z,7.33
2019-01-16T17:28:44.498Z,6.70
2019-01-16T17:31:27.586Z,6.83
2019-01-16T17:34:20.020Z,7.53
2019-01-16T17:37:08.307Z,7.73
2019-01-16T17:39:52.312Z,7.73
2019-01-16T17:42:43.436Z,7.67
2019-01-16T17:45:31.560Z,6.93
2019-01-16T17:48:34.780Z,7.50
2019-01-16T17:51:31.698Z,7.13
2019-01-16T17:54:17.910Z,7.33
2019-01-16T17:56:58.599Z,7.40
2019-01-16T17:59:55.144Z,7.90
2019-01-16T18:02:49.005Z,8.33
2019-01-16T18:05:37.041Z,7.60
2019-01-16T18:08:24.674Z,7.63
2019-01-16T18:11:12.430Z,7.37
2019-01-16T18:14:04.339Z,6.67
2019-01-16T18:17:07.730Z,7.50
2019-01-16T18:19:54.770Z,7.53
2019-01-16T18:22:45.304Z,6.63
2019-01-16T18:25:27.832Z,7.80
2019-01-16T18:28:14.522Z,6.27
2019-01-16T18:31:11.876Z,5.97
2019-01-16T18:33:58.525Z,6.77
2019-01-16T18:36:52.779Z,7.30
2019-01-16T18:39:40.822Z,6.23
2019-01-16T18:42:23.983Z,6.80
2019-01-16T18:45:02.967Z,6.40
2019-01-16T18:47:45.748Z,5.73
2019-01-16T18:50:31.417Z,5.70
2019-01-16T18:53:13.928Z,6.30
2019-01-16T18:56:05.401Z,5.70
2019-01-16T18:58:42.308Z,5.90
2019-01-16T19:01:48.653Z,6.03
2019-01-16T19:04:51.890Z,5.87
2019-01-16T19:07:38.753Z,5.47
2019-01-16T19:10:25.915Z,6.10
2019-01-16T19:13:15.458Z,5.90
2019-01-16T19:16:12.993Z,6.17
2019-01-16T19:19:00.308Z,6.13
2019-01-16T19:21:49.958Z,6.07
2019-01-16T19:24:44.259Z,6.37
2019-01-16T19:27:32.276Z,5.80
2019-01-16T19:30:20.353Z,6.37
2019-01-16T19:32:55.192Z,6.67
2019-01-16T19:35:41.481Z,5.87
2019-01-16T19:38:29.750Z,6.93
2019-01-16T19:41:12.633Z,6.30
2019-01-16T19:44:00.795Z,6.90
2019-01-16T19:46:48.359Z,6.80
2019-01-16T19:49:35.049Z,6.87
2019-01-16T19:52:22.575Z,6.50
2019-01-16T19:55:20.001Z,6.87
2019-01-16T19:57:59.868Z,7.30
2019-01-16T20:00:46.559Z,7.90
2019-01-16T20:03:34.126Z,6.87
2019-01-16T20:06:25.176Z,7.27
2019-01-16T20:09:13.199Z,7.00
2019-01-16T20:12:04.972Z,7.47
2019-01-16T20:14:51.390Z,7.83
2019-01-16T20:17:33.593Z,7.67
2019-01-16T20:20:24.412Z,7.83
2019-01-16T20:23:12.465Z,7.40
2019-01-16T20:26:06.482Z,7.27
2019-01-16T20:28:53.155Z,7.73
2019-01-16T20:31:39.917Z,7.63
2019-01-16T20:34:28.017Z,7.43
2019-01-16T20:37:18.847Z,7.20
2019-01-16T20:40:09.871Z,7.33
2019-01-16T20:43:15.799Z,7.33
2019-01-16T20:46:03.857Z,7.80
2019-01-16T20:48:45.684Z,7.13
2019-01-16T20:51:31.909Z,7.10
2019-01-16T20:54:09.802Z,8.33
2019-01-16T20:57:16.155Z,7.60
2019-01-16T21:00:02.801Z,9.40
2019-01-16T21:02:49.555Z,9.23
2019-01-16T21:05:46.520Z,9.13
2019-01-16T21:08:37.361Z,10.57
2019-01-16T21:11:19.953Z,8.73
2019-01-16T21:13:56.726Z,9.07
2019-01-16T21:16:48.828Z,9.63
2019-01-16T21:19:39.657Z,8.73
2019-01-16T21:22:26.924Z,9.33
2019-01-16T21:25:09.287Z,8.60
2019-01-16T21:28:06.113Z,8.80
2019-01-16T21:30:53.251Z,9.03
2019-01-16T21:33:56.163Z,8.37
2019-01-16T21:36:36.199Z,9.90
2019-01-16T21:39:30.757Z,8.50
2019-01-16T21:42:18.817Z,9.67
2019-01-16T21:45:05.662Z,8.90
2019-01-16T21:47:57.082Z,8.93
2019-01-16T21:50:47.934Z,8.33
2019-01-16T21:53:36.239Z,9.13
2019-01-16T21:56:24.527Z,9.20
2019-01-16T21:59:06.627Z,9.63
2019-01-16T22:01:54.305Z,9.23
2019-01-16T22:04:38.237Z,9.20
2019-01-16T22:07:30.505Z,10.17
2019-01-16T22:10:18.066Z,8.87
2019-01-16T22:12:57.445Z,10.03
2019-01-16T22:15:48.673Z,9.97
2019-01-16T22:18:40.815Z,10.00
2019-01-16T22:21:25.710Z,10.43
2019-01-16T22:24:15.377Z,9.83
2019-01-16T22:27:04.285Z,10.53
2019-01-16T22:29:50.970Z,10.77
2019-01-16T22:32:54.749Z,10.70
2019-01-16T22:35:48.806Z,11.70
2019-01-16T22:38:36.108Z,11.07
2019-01-16T22:41:33.277Z,11.77
2019-01-16T22:44:33.432Z,11.57
2019-01-16T22:47:12.326Z,12.77
2019-01-16T22:49:59.001Z,12.43
2019-01-16T22:52:45.737Z,11.87
2019-01-16T22:55:25.339Z,12.67
2019-01-16T22:58:03.267Z,11.80
2019-01-16T23:00:58.338Z,10.60
2019-01-16T23:03:55.421Z,9.93
2019-01-16T23:06:42.309Z,9.47
2019-01-16T23:09:32.163Z,7.90
2019-01-16T23:12:15.951Z,8.60
2019-01-16T23:14:57.049Z,8.47
2019-01-16T23:17:43.931Z,8.90
2019-01-16T23:20:30.640Z,8.50
2019-01-16T23:23:27.803Z,8.87
2019-01-16T23:26:22.709Z,8.53
2019-01-16T23:29:05.976Z,9.40
2019-01-16T23:31:51.825Z,9.23
2019-01-16T23:34:53.507Z,9.20
2019-01-16T23:37:55.029Z,9.57
2019-01-16T23:40:38.825Z,10.27
2019-01-16T23:43:25.577Z,10.70
2019-01-16T23:46:17.659Z,9.93
2019-01-16T23:49:11.734Z,9.97
2019-01-16T23:51:59.733Z,10.30
2019-01-16T23:54:53.863Z,10.07
2019-01-16T23:57:48.358Z,10.40
